sensor_id;sensor_type;location;lat;lon;timestamp;P1;durP1;ratioP1;P2;durP2;ratioP2
9324;SDS011;4701;51.566;6.776;2023-07-22T04:03:45;10.93;;;7.70;;
9324;SDS011;4701;51.566;6.776;2023-07-22T04:06:47;11.03;;;9.17;;
9324;SDS011;4701;51.566;6.776;2023-07-22T04:09:49;11.40;;;8.83;;
9324;SDS011;4701;51.566;6.776;2023-07-22T04:12:51;16.70;;;10.53;;
9324;SDS011;4701;51.566;6.776;2023-07-22T04:15:53;10.47;;;8.67;;
9324;SDS011;4701;51.566;6.776;2023-07-22T04:18:56;9.97;;;7.47;;
9324;SDS011;4701;51.566;6.776;2023-07-22T04:21:58;9.80;;;7.73;;
9324;SDS011;4701;51.566;6.776;2023-07-22T04:25:04;9.70;;;8.07;;
9324;SDS011;4701;51.566;6.776;2023-07-22T04:28:06;8.53;;;7.40;;
9324;SDS011;4701;51.566;6.776;2023-07-22T04:31:09;10.17;;;7.83;;
9324;SDS011;4701;51.566;6.776;2023-07-22T04:34:12;8.27;;;7.23;;
9324;SDS011;4701;51.566;6.776;2023-07-22T04:37:13;12.20;;;9.73;;
9324;SDS011;4701;51.566;6.776;2023-07-22T04:40:17;13.63;;;11.33;;
9324;SDS011;4701;51.566;6.776;2023-07-22T04:43:18;12.50;;;8.70;;
9324;SDS011;4701;51.566;6.776;2023-07-22T04:46:20;11.17;;;8.77;;
9324;SDS011;4701;51.566;6.776;2023-07-22T04:49:23;9.33;;;8.43;;
9324;SDS011;4701;51.566;6.776;2023-07-22T04:52:25;12.00;;;8.77;;
9324;SDS011;4701;51.566;6.776;2023-07-22T04:55:29;10.30;;;7.93;;
9324;SDS011;4701;51.566;6.776;2023-07-22T04:58:31;12.80;;;9.67;;
9324;SDS011;4701;51.566;6.776;2023-07-22T05:01:33;11.80;;;9.27;;
9324;SDS011;4701;51.566;6.776;2023-07-22T05:04:36;11.27;;;8.43;;
9324;SDS011;4701;51.566;6.776;2023-07-22T05:07:38;11.23;;;9.87;;
9324;SDS011;4701;51.566;6.776;2023-07-22T05:10:40;13.93;;;10.93;;
9324;SDS011;4701;51.566;6.776;2023-07-22T05:13:41;12.90;;;11.03;;
9324;SDS011;4701;51.566;6.776;2023-07-22T05:16:44;9.50;;;8.50;;
9324;SDS011;4701;51.566;6.776;2023-07-22T05:19:47;10.10;;;8.27;;
9324;SDS011;4701;51.566;6.776;2023-07-22T05:22:49;18.03;;;14.90;;
9324;SDS011;4701;51.566;6.776;2023-07-22T05:25:54;17.37;;;13.47;;
9324;SDS011;4701;51.566;6.776;2023-07-22T05:28:56;11.70;;;8.53;;
9324;SDS011;4701;51.566;6.776;2023-07-22T05:31:58;10.83;;;8.27;;
9324;SDS011;4701;51.566;6.776;2023-07-22T05:35:01;9.77;;;7.13;;
9324;SDS011;4701;51.566;6.776;2023-07-22T05:38:05;11.20;;;7.57;;
9324;SDS011;4701;51.566;6.776;2023-07-22T05:41:06;8.47;;;7.57;;
9324;SDS011;4701;51.566;6.776;2023-07-22T05:44:08;8.50;;;7.23;;
9324;SDS011;4701;51.566;6.776;2023-07-22T05:47:10;11.03;;;7.67;;
9324;SDS011;4701;51.566;6.776;2023-07-22T05:50:13;7.70;;;6.90;;
9324;SDS011;4701;51.566;6.776;2023-07-22T05:53:15;9.40;;;6.60;;
9324;SDS011;4701;51.566;6.776;2023-07-22T05:56:16;10.03;;;7.20;;
9324;SDS011;4701;51.566;6.776;2023-07-22T05:59:18;9.73;;;7.90;;
9324;SDS011;4701;51.566;6.776;2023-07-22T06:02:20;8.77;;;7.43;;
9324;SDS011;4701;51.566;6.776;2023-07-22T06:05:23;8.27;;;7.20;;
9324;SDS011;4701;51.566;6.776;2023-07-22T06:08:25;11.43;;;7.97;;
9324;SDS011;4701;51.566;6.776;2023-07-22T06:11:27;8.17;;;7.30;;
9324;SDS011;4701;51.566;6.776;2023-07-22T06:14:28;11.27;;;7.87;;
9324;SDS011;4701;51.566;6.776;2023-07-22T06:17:30;11.53;;;7.67;;
9324;SDS011;4701;51.566;6.776;2023-07-22T06:20:33;8.67;;;7.40;;
9324;SDS011;4701;51.566;6.776;2023-07-22T06:23:35;9.63;;;7.57;;
9324;SDS011;4701;51.566;6.776;2023-07-22T06:26:38;10.43;;;7.73;;
9324;SDS011;4701;51.566;6.776;2023-07-22T06:29:42;8.33;;;7.10;;
9324;SDS011;4701;51.566;6.776;2023-07-22T06:32:44;10.40;;;8.20;;
9324;SDS011;4701;51.566;6.776;2023-07-22T06:35:47;8.80;;;7.37;;
9324;SDS011;4701;51.566;6.776;2023-07-22T06:38:49;10.77;;;7.73;;
9324;SDS011;4701;51.566;6.776;2023-07-22T06:41:50;11.27;;;8.50;;
9324;SDS011;4701;51.566;6.776;2023-07-22T06:44:52;10.10;;;8.07;;
9324;SDS011;4701;51.566;6.776;2023-07-22T06:47:54;11.10;;;8.07;;
9324;SDS011;4701;51.566;6.776;2023-07-22T06:50:57;11.00;;;8.33;;
9324;SDS011;4701;51.566;6.776;2023-07-22T06:53:59;14.93;;;9.53;;
9324;SDS011;4701;51.566;6.776;2023-07-22T06:57:01;13.13;;;9.30;;
9324;SDS011;4701;51.566;6.776;2023-07-22T07:00:03;12.83;;;9.27;;
9324;SDS011;4701;51.566;6.776;2023-07-22T07:03:06;11.70;;;8.13;;
9324;SDS011;4701;51.566;6.776;2023-07-22T07:06:09;11.57;;;8.13;;
9324;SDS011;4701;51.566;6.776;2023-07-22T07:09:11;13.80;;;8.63;;
9324;SDS011;4701;51.566;6.776;2023-07-22T07:12:12;14.57;;;10.37;;
9324;SDS011;4701;51.566;6.776;2023-07-22T07:15:16;12.50;;;8.50;;
9324;SDS011;4701;51.566;6.776;2023-07-22T07:18:18;10.30;;;8.33;;
9324;SDS011;4701;51.566;6.776;2023-07-22T07:21:22;14.50;;;8.63;;
9324;SDS011;4701;51.566;6.776;2023-07-22T07:24:25;19.37;;;15.57;;
9324;SDS011;4701;51.566;6.776;2023-07-22T07:27:27;13.40;;;8.73;;
9324;SDS011;4701;51.566;6.776;2023-07-22T07:30:29;9.67;;;7.03;;
9324;SDS011;4701;51.566;6.776;2023-07-22T07:33:31;9.43;;;7.80;;
9324;SDS011;4701;51.566;6.776;2023-07-22T07:36:34;12.43;;;7.80;;
9324;SDS011;4701;51.566;6.776;2023-07-22T07:39:36;9.47;;;7.63;;
9324;SDS011;4701;51.566;6.776;2023-07-22T07:42:38;9.63;;;7.60;;
9324;SDS011;4701;51.566;6.776;2023-07-22T07:45:39;11.27;;;8.10;;
9324;SDS011;4701;51.566;6.776;2023-07-22T07:48:41;11.67;;;7.60;;
9324;SDS011;4701;51.566;6.776;2023-07-22T07:51:44;8.87;;;7.23;;
9324;SDS011;4701;51.566;6.776;2023-07-22T07:54:46;10.23;;;7.43;;
9324;SDS011;4701;51.566;6.776;2023-07-22T07:57:48;10.17;;;7.73;;
9324;SDS011;4701;51.566;6.776;2023-07-22T08:00:49;11.80;;;7.17;;
9324;SDS011;4701;51.566;6.776;2023-07-22T08:03:51;8.77;;;7.53;;
9324;SDS011;4701;51.566;6.776;2023-07-22T08:06:54;7.73;;;6.60;;
9324;SDS011;4701;51.566;6.776;2023-07-22T08:09:56;9.13;;;7.47;;
9324;SDS011;4701;51.566;6.776;2023-07-22T08:12:59;9.50;;;7.37;;
9324;SDS011;4701;51.566;6.776;2023-07-22T08:16:00;10.23;;;6.97;;
9324;SDS011;4701;51.566;6.776;2023-07-22T08:19:03;8.57;;;6.60;;
9324;SDS011;4701;51.566;6.776;2023-07-22T08:22:06;7.37;;;6.23;;
9324;SDS011;4701;51.566;6.776;2023-07-22T08:25:08;7.83;;;6.27;;
9324;SDS011;4701;51.566;6.776;2023-07-22T08:28:10;9.20;;;6.90;;
9324;SDS011;4701;51.566;6.776;2023-07-22T08:31:11;8.70;;;6.93;;
9324;SDS011;4701;51.566;6.776;2023-07-22T08:34:13;8.23;;;6.67;;
9324;SDS011;4701;51.566;6.776;2023-07-22T08:37:16;8.50;;;6.77;;
9324;SDS011;4701;51.566;6.776;2023-07-22T08:40:18;9.67;;;6.77;;
9324;SDS011;4701;51.566;6.776;2023-07-22T08:43:21;8.50;;;6.03;;
9324;SDS011;4701;51.566;6.776;2023-07-22T08:46:23;7.50;;;6.57;;
9324;SDS011;4701;51.566;6.776;2023-07-22T08:49:30;6.60;;;5.97;;
9324;SDS011;4701;51.566;6.776;2023-07-22T08:52:34;5.87;;;5.27;;
9324;SDS011;4701;51.566;6.776;2023-07-22T08:55:36;6.53;;;5.83;;
9324;SDS011;4701;51.566;6.776;2023-07-22T08:58:40;6.87;;;6.10;;
9324;SDS011;4701;51.566;6.776;2023-07-22T09:01:43;7.20;;;5.97;;
9324;SDS011;4701;51.566;6.776;2023-07-22T09:04:46;7.67;;;6.10;;
9324;SDS011;4701;51.566;6.776;2023-07-22T09:07:49;10.77;;;6.53;;
9324;SDS011;4701;51.566;6.776;2023-07-22T09:10:52;8.33;;;6.00;;
9324;SDS011;4701;51.566;6.776;2023-07-22T09:13:55;7.73;;;6.27;;
9324;SDS011;4701;51.566;6.776;2023-07-22T09:16:58;7.93;;;5.70;;
9324;SDS011;4701;51.566;6.776;2023-07-22T09:20:00;8.30;;;6.90;;
9324;SDS011;4701;51.566;6.776;2023-07-22T09:23:06;8.50;;;7.07;;
9324;SDS011;4701;51.566;6.776;2023-07-22T09:26:09;7.67;;;5.13;;
9324;SDS011;4701;51.566;6.776;2023-07-22T09:29:16;6.40;;;5.17;;
9324;SDS011;4701;51.566;6.776;2023-07-22T09:32:21;6.53;;;5.60;;
9324;SDS011;4701;51.566;6.776;2023-07-22T09:35:43;6.27;;;4.40;;
9324;SDS011;4701;51.566;6.776;2023-07-22T09:38:59;6.43;;;4.70;;
9324;SDS011;4701;51.566;6.776;2023-07-22T09:42:02;5.53;;;4.50;;
9324;SDS011;4701;51.566;6.776;2023-07-22T09:45:06;6.10;;;4.63;;
9324;SDS011;4701;51.566;6.776;2023-07-22T09:48:10;6.73;;;4.57;;
9324;SDS011;4701;51.566;6.776;2023-07-22T09:51:13;5.83;;;4.43;;
9324;SDS011;4701;51.566;6.776;2023-07-22T09:54:19;5.97;;;4.47;;
9324;SDS011;4701;51.566;6.776;2023-07-22T09:57:21;5.37;;;4.27;;
9324;SDS011;4701;51.566;6.776;2023-07-22T10:00:24;4.73;;;4.23;;
9324;SDS011;4701;51.566;6.776;2023-07-22T14:37:59;3.80;;;2.50;;
9324;SDS011;4701;51.566;6.776;2023-07-22T14:41:00;3.30;;;2.70;;
9324;SDS011;4701;51.566;6.776;2023-07-22T14:44:03;3.93;;;2.00;;
9324;SDS011;4701;51.566;6.776;2023-07-22T14:47:05;7.07;;;4.15;;
9324;SDS011;4701;51.566;6.776;2023-07-22T14:50:06;2.80;;;2.40;;
9324;SDS011;4701;51.566;6.776;2023-07-22T14:53:10;2.92;;;2.38;;
9324;SDS011;4701;51.566;6.776;2023-07-22T14:56:12;3.70;;;2.40;;
9324;SDS011;4701;51.566;6.776;2023-07-22T14:59:14;2.63;;;2.05;;
9324;SDS011;4701;51.566;6.776;2023-07-22T15:02:19;3.80;;;2.25;;
9324;SDS011;4701;51.566;6.776;2023-07-22T15:05:21;3.05;;;2.53;;
9324;SDS011;4701;51.566;6.776;2023-07-22T15:08:26;3.85;;;2.72;;
9324;SDS011;4701;51.566;6.776;2023-07-22T15:11:27;2.65;;;2.45;;
9324;SDS011;4701;51.566;6.776;2023-07-22T15:14:29;3.83;;;2.65;;
9324;SDS011;4701;51.566;6.776;2023-07-22T15:17:30;3.30;;;2.47;;
9324;SDS011;4701;51.566;6.776;2023-07-22T15:20:34;2.42;;;2.22;;
9324;SDS011;4701;51.566;6.776;2023-07-22T15:23:37;3.22;;;2.42;;
9324;SDS011;4701;51.566;6.776;2023-07-22T15:26:39;2.97;;;2.15;;
9324;SDS011;4701;51.566;6.776;2023-07-22T15:29:41;4.95;;;3.60;;
9324;SDS011;4701;51.566;6.776;2023-07-22T15:32:42;3.88;;;2.47;;
9324;SDS011;4701;51.566;6.776;2023-07-22T15:35:44;2.30;;;2.10;;
9324;SDS011;4701;51.566;6.776;2023-07-22T15:38:47;3.22;;;1.70;;
9324;SDS011;4701;51.566;6.776;2023-07-22T15:41:49;2.33;;;2.10;;
9324;SDS011;4701;51.566;6.776;2023-07-22T15:44:50;2.80;;;1.88;;
9324;SDS011;4701;51.566;6.776;2023-07-22T15:47:52;3.28;;;1.77;;
9324;SDS011;4701;51.566;6.776;2023-07-22T15:50:54;3.03;;;2.00;;
9324;SDS011;4701;51.566;6.776;2023-07-22T15:53:57;2.38;;;1.67;;
9324;SDS011;4701;51.566;6.776;2023-07-22T15:56:59;1.83;;;1.60;;
9324;SDS011;4701;51.566;6.776;2023-07-22T16:00:00;2.05;;;1.63;;
9324;SDS011;4701;51.566;6.776;2023-07-22T16:03:02;3.75;;;1.85;;
9324;SDS011;4701;51.566;6.776;2023-07-22T16:06:04;2.28;;;1.92;;
9324;SDS011;4701;51.566;6.776;2023-07-22T16:09:07;2.05;;;1.80;;
9324;SDS011;4701;51.566;6.776;2023-07-22T16:12:09;2.40;;;1.90;;
9324;SDS011;4701;51.566;6.776;2023-07-22T16:15:10;2.78;;;2.20;;
9324;SDS011;4701;51.566;6.776;2023-07-22T16:18:12;2.92;;;1.92;;
9324;SDS011;4701;51.566;6.776;2023-07-22T16:21:14;2.22;;;1.98;;
9324;SDS011;4701;51.566;6.776;2023-07-22T16:24:17;3.03;;;2.03;;
9324;SDS011;4701;51.566;6.776;2023-07-22T16:27:19;2.05;;;1.85;;
9324;SDS011;4701;51.566;6.776;2023-07-22T16:30:21;3.80;;;2.22;;
9324;SDS011;4701;51.566;6.776;2023-07-22T16:33:22;3.65;;;2.60;;
9324;SDS011;4701;51.566;6.776;2023-07-22T16:36:24;3.90;;;2.65;;
9324;SDS011;4701;51.566;6.776;2023-07-22T16:39:27;5.57;;;2.88;;
9324;SDS011;4701;51.566;6.776;2023-07-22T16:42:29;3.85;;;2.45;;
9324;SDS011;4701;51.566;6.776;2023-07-22T16:45:31;4.38;;;2.65;;
9324;SDS011;4701;51.566;6.776;2023-07-22T16:48:32;3.15;;;2.50;;
9324;SDS011;4701;51.566;6.776;2023-07-22T16:51:34;2.63;;;2.40;;
9324;SDS011;4701;51.566;6.776;2023-07-22T16:54:37;3.63;;;2.60;;
9324;SDS011;4701;51.566;6.776;2023-07-22T16:57:40;4.47;;;2.38;;
9324;SDS011;4701;51.566;6.776;2023-07-22T17:00:42;3.33;;;2.67;;
9324;SDS011;4701;51.566;6.776;2023-07-22T17:03:47;3.65;;;2.97;;
9324;SDS011;4701;51.566;6.776;2023-07-22T17:06:49;4.22;;;3.42;;
9324;SDS011;4701;51.566;6.776;2023-07-22T17:09:52;4.70;;;3.47;;
9324;SDS011;4701;51.566;6.776;2023-07-22T17:12:53;4.50;;;3.00;;
9324;SDS011;4701;51.566;6.776;2023-07-22T17:15:55;4.22;;;3.00;;
9324;SDS011;4701;51.566;6.776;2023-07-22T17:18:57;5.10;;;2.95;;
9324;SDS011;4701;51.566;6.776;2023-07-22T17:21:58;3.53;;;2.78;;
9324;SDS011;4701;51.566;6.776;2023-07-22T17:25:02;2.75;;;2.47;;
9324;SDS011;4701;51.566;6.776;2023-07-22T17:28:04;3.35;;;2.65;;
9324;SDS011;4701;51.566;6.776;2023-07-22T17:31:06;3.25;;;2.50;;
9324;SDS011;4701;51.566;6.776;2023-07-22T17:34:07;4.97;;;2.53;;
9324;SDS011;4701;51.566;6.776;2023-07-22T17:37:09;3.35;;;2.55;;
9324;SDS011;4701;51.566;6.776;2023-07-22T17:40:12;2.90;;;2.60;;
9324;SDS011;4701;51.566;6.776;2023-07-22T17:43:14;4.30;;;2.85;;
9324;SDS011;4701;51.566;6.776;2023-07-22T17:46:16;5.18;;;2.65;;
9324;SDS011;4701;51.566;6.776;2023-07-22T17:49:18;4.40;;;2.90;;
9324;SDS011;4701;51.566;6.776;2023-07-22T17:52:19;3.50;;;2.35;;
9324;SDS011;4701;51.566;6.776;2023-07-22T17:55:22;3.83;;;2.80;;
9324;SDS011;4701;51.566;6.776;2023-07-22T17:58:24;3.53;;;2.42;;
9324;SDS011;4701;51.566;6.776;2023-07-22T18:01:26;4.22;;;2.53;;
9324;SDS011;4701;51.566;6.776;2023-07-22T18:04:27;3.38;;;2.40;;
9324;SDS011;4701;51.566;6.776;2023-07-22T18:07:33;4.55;;;2.40;;
9324;SDS011;4701;51.566;6.776;2023-07-22T18:10:43;5.63;;;2.75;;
9324;SDS011;4701;51.566;6.776;2023-07-22T18:13:45;3.58;;;2.42;;
9324;SDS011;4701;51.566;6.776;2023-07-22T18:16:50;3.50;;;2.13;;
9324;SDS011;4701;51.566;6.776;2023-07-22T18:19:52;4.03;;;2.33;;
9324;SDS011;4701;51.566;6.776;2023-07-22T18:22:54;4.00;;;2.33;;
9324;SDS011;4701;51.566;6.776;2023-07-22T18:25:57;3.30;;;2.33;;
9324;SDS011;4701;51.566;6.776;2023-07-22T18:28:59;2.83;;;2.08;;
9324;SDS011;4701;51.566;6.776;2023-07-22T18:32:00;3.72;;;2.38;;
9324;SDS011;4701;51.566;6.776;2023-07-22T18:35:02;2.15;;;1.90;;
9324;SDS011;4701;51.566;6.776;2023-07-22T18:38:04;2.97;;;1.83;;
9324;SDS011;4701;51.566;6.776;2023-07-22T18:41:07;3.03;;;1.98;;
9324;SDS011;4701;51.566;6.776;2023-07-22T18:44:09;3.50;;;2.00;;
9324;SDS011;4701;51.566;6.776;2023-07-22T18:47:11;2.60;;;1.88;;
9324;SDS011;4701;51.566;6.776;2023-07-22T18:50:12;2.35;;;2.05;;
9324;SDS011;4701;51.566;6.776;2023-07-22T18:53:14;3.45;;;1.70;;
9324;SDS011;4701;51.566;6.776;2023-07-22T18:56:17;2.65;;;2.10;;
9324;SDS011;4701;51.566;6.776;2023-07-22T18:59:19;3.43;;;2.10;;
9324;SDS011;4701;51.566;6.776;2023-07-22T19:02:20;2.50;;;1.70;;
9324;SDS011;4701;51.566;6.776;2023-07-22T19:05:22;4.07;;;2.07;;
9324;SDS011;4701;51.566;6.776;2023-07-22T19:08:24;3.08;;;1.92;;
9324;SDS011;4701;51.566;6.776;2023-07-22T19:11:29;2.27;;;2.07;;
9324;SDS011;4701;51.566;6.776;2023-07-22T19:14:30;3.47;;;2.10;;
9324;SDS011;4701;51.566;6.776;2023-07-22T19:17:32;4.10;;;1.95;;
9324;SDS011;4701;51.566;6.776;2023-07-22T19:20:33;3.65;;;1.90;;
9324;SDS011;4701;51.566;6.776;2023-07-22T19:23:35;2.80;;;2.10;;
9324;SDS011;4701;51.566;6.776;2023-07-22T19:26:38;2.70;;;1.67;;
9324;SDS011;4701;51.566;6.776;2023-07-22T19:29:40;3.87;;;2.00;;
9324;SDS011;4701;51.566;6.776;2023-07-22T19:32:41;2.55;;;1.90;;
9324;SDS011;4701;51.566;6.776;2023-07-22T19:35:43;4.30;;;2.00;;
9324;SDS011;4701;51.566;6.776;2023-07-22T19:38:45;3.30;;;2.00;;
9324;SDS011;4701;51.566;6.776;2023-07-22T19:41:48;2.93;;;2.20;;
9324;SDS011;4701;51.566;6.776;2023-07-22T19:44:50;2.40;;;2.00;;
9324;SDS011;4701;51.566;6.776;2023-07-22T19:47:51;4.30;;;2.00;;
9324;SDS011;4701;51.566;6.776;2023-07-22T19:50:54;3.90;;;2.45;;
9324;SDS011;4701;51.566;6.776;2023-07-22T19:53:55;3.37;;;2.10;;
9324;SDS011;4701;51.566;6.776;2023-07-22T19:57:01;3.20;;;2.17;;
9324;SDS011;4701;51.566;6.776;2023-07-22T20:00:03;2.97;;;2.30;;
9324;SDS011;4701;51.566;6.776;2023-07-22T20:03:06;4.73;;;2.10;;
9324;SDS011;4701;51.566;6.776;2023-07-22T20:06:07;2.83;;;2.10;;
9324;SDS011;4701;51.566;6.776;2023-07-22T20:09:09;3.57;;;2.30;;
9324;SDS011;4701;51.566;6.776;2023-07-22T20:12:12;2.57;;;2.00;;
9324;SDS011;4701;51.566;6.776;2023-07-22T20:15:14;2.73;;;2.03;;
9324;SDS011;4701;51.566;6.776;2023-07-22T20:18:16;2.90;;;2.30;;
9324;SDS011;4701;51.566;6.776;2023-07-22T20:21:17;4.27;;;2.30;;
9324;SDS011;4701;51.566;6.776;2023-07-22T20:24:19;4.53;;;2.40;;
9324;SDS011;4701;51.566;6.776;2023-07-22T20:27:22;4.17;;;2.43;;
9324;SDS011;4701;51.566;6.776;2023-07-22T20:30:24;3.60;;;2.27;;
9324;SDS011;4701;51.566;6.776;2023-07-22T20:33:27;2.67;;;2.43;;
9324;SDS011;4701;51.566;6.776;2023-07-22T20:36:30;3.50;;;2.20;;
9324;SDS011;4701;51.566;6.776;2023-07-22T20:39:32;4.63;;;2.70;;
9324;SDS011;4701;51.566;6.776;2023-07-22T20:42:35;3.87;;;2.63;;
9324;SDS011;4701;51.566;6.776;2023-07-22T20:45:38;5.13;;;3.03;;
9324;SDS011;4701;51.566;6.776;2023-07-22T20:48:40;3.50;;;2.60;;
9324;SDS011;4701;51.566;6.776;2023-07-22T20:51:42;3.57;;;2.37;;
9324;SDS011;4701;51.566;6.776;2023-07-22T20:54:44;3.87;;;2.70;;
9324;SDS011;4701;51.566;6.776;2023-07-22T20:57:48;4.67;;;3.00;;
9324;SDS011;4701;51.566;6.776;2023-07-22T21:00:49;5.30;;;3.00;;
9324;SDS011;4701;51.566;6.776;2023-07-22T21:03:53;4.83;;;2.67;;
9324;SDS011;4701;51.566;6.776;2023-07-22T21:06:54;3.87;;;3.03;;
9324;SDS011;4701;51.566;6.776;2023-07-22T21:09:56;6.90;;;3.20;;
9324;SDS011;4701;51.566;6.776;2023-07-22T21:12:59;4.50;;;2.80;;
9324;SDS011;4701;51.566;6.776;2023-07-22T21:16:00;6.07;;;2.80;;
9324;SDS011;4701;51.566;6.776;2023-07-22T21:19:02;3.77;;;3.27;;
9324;SDS011;4701;51.566;6.776;2023-07-22T21:22:04;4.87;;;2.87;;
9324;SDS011;4701;51.566;6.776;2023-07-22T21:25:06;3.40;;;2.87;;
9324;SDS011;4701;51.566;6.776;2023-07-22T21:28:10;3.73;;;2.90;;
9324;SDS011;4701;51.566;6.776;2023-07-22T21:31:12;5.27;;;3.20;;
9324;SDS011;4701;51.566;6.776;2023-07-22T21:34:14;5.30;;;3.37;;
9324;SDS011;4701;51.566;6.776;2023-07-22T21:37:15;3.80;;;2.93;;
9324;SDS011;4701;51.566;6.776;2023-07-22T21:40:17;5.87;;;2.93;;
9324;SDS011;4701;51.566;6.776;2023-07-22T21:43:20;4.47;;;3.20;;
9324;SDS011;4701;51.566;6.776;2023-07-22T21:46:22;5.80;;;3.13;;
9324;SDS011;4701;51.566;6.776;2023-07-22T21:49:23;3.40;;;2.80;;
9324;SDS011;4701;51.566;6.776;2023-07-22T21:52:25;3.40;;;3.07;;
9324;SDS011;4701;51.566;6.776;2023-07-22T21:55:27;4.03;;;3.10;;
9324;SDS011;4701;51.566;6.776;2023-07-22T21:58:30;3.67;;;2.93;;
9324;SDS011;4701;51.566;6.776;2023-07-22T22:01:31;3.80;;;2.97;;
9324;SDS011;4701;51.566;6.776;2023-07-22T22:04:35;3.97;;;3.00;;
9324;SDS011;4701;51.566;6.776;2023-07-22T22:07:37;4.27;;;2.90;;
9324;SDS011;4701;51.566;6.776;2023-07-22T22:10:39;4.23;;;3.23;;
9324;SDS011;4701;51.566;6.776;2023-07-22T22:13:41;6.13;;;3.10;;
9324;SDS011;4701;51.566;6.776;2023-07-22T22:16:43;4.53;;;3.43;;
9324;SDS011;4701;51.566;6.776;2023-07-22T22:19:45;4.83;;;3.10;;
9324;SDS011;4701;51.566;6.776;2023-07-22T22:22:46;4.60;;;3.27;;
9324;SDS011;4701;51.566;6.776;2023-07-22T22:25:48;4.43;;;3.20;;
9324;SDS011;4701;51.566;6.776;2023-07-22T22:28:51;4.73;;;3.47;;
9324;SDS011;4701;51.566;6.776;2023-07-22T22:31:52;3.47;;;3.13;;
9324;SDS011;4701;51.566;6.776;2023-07-22T22:34:54;3.47;;;3.17;;
9324;SDS011;4701;51.566;6.776;2023-07-22T22:37:56;5.43;;;3.33;;
9324;SDS011;4701;51.566;6.776;2023-07-22T22:40:57;3.70;;;3.30;;
9324;SDS011;4701;51.566;6.776;2023-07-22T22:44:00;3.47;;;2.83;;
9324;SDS011;4701;51.566;6.776;2023-07-22T22:47:02;7.03;;;3.40;;
9324;SDS011;4701;51.566;6.776;2023-07-22T22:50:04;5.80;;;3.23;;
9324;SDS011;4701;51.566;6.776;2023-07-22T22:53:07;4.90;;;3.70;;
9324;SDS011;4701;51.566;6.776;2023-07-22T22:56:11;5.77;;;3.70;;
9324;SDS011;4701;51.566;6.776;2023-07-22T22:59:14;9.33;;;4.03;;
9324;SDS011;4701;51.566;6.776;2023-07-22T23:02:15;5.63;;;3.73;;
9324;SDS011;4701;51.566;6.776;2023-07-22T23:05:17;4.83;;;4.03;;
9324;SDS011;4701;51.566;6.776;2023-07-22T23:08:19;4.17;;;3.67;;
9324;SDS011;4701;51.566;6.776;2023-07-22T23:11:20;6.10;;;4.20;;
9324;SDS011;4701;51.566;6.776;2023-07-22T23:14:25;4.43;;;3.90;;
9324;SDS011;4701;51.566;6.776;2023-07-22T23:17:26;5.47;;;3.47;;
9324;SDS011;4701;51.566;6.776;2023-07-22T23:20:28;4.43;;;3.60;;
9324;SDS011;4701;51.566;6.776;2023-07-22T23:23:29;4.57;;;3.60;;
9324;SDS011;4701;51.566;6.776;2023-07-22T23:26:31;5.37;;;4.00;;
9324;SDS011;4701;51.566;6.776;2023-07-22T23:29:34;5.03;;;3.87;;
9324;SDS011;4701;51.566;6.776;2023-07-22T23:32:36;5.07;;;3.80;;
9324;SDS011;4701;51.566;6.776;2023-07-22T23:35:37;5.50;;;4.13;;
9324;SDS011;4701;51.566;6.776;2023-07-22T23:38:39;3.93;;;3.53;;
9324;SDS011;4701;51.566;6.776;2023-07-22T23:41:41;5.23;;;4.17;;
9324;SDS011;4701;51.566;6.776;2023-07-22T23:44:44;8.40;;;4.17;;
9324;SDS011;4701;51.566;6.776;2023-07-22T23:47:45;5.37;;;4.07;;
9324;SDS011;4701;51.566;6.776;2023-07-22T23:50:47;4.80;;;3.50;;
9324;SDS011;4701;51.566;6.776;2023-07-22T23:53:48;4.83;;;4.07;;
9324;SDS011;4701;51.566;6.776;2023-07-22T23:56:51;4.63;;;3.70;;
9324;SDS011;4701;51.566;6.776;2023-07-22T23:59:54;5.07;;;4.00;;
